sensor_id;sensor_type;location;lat;lon;timestamp;temperature;humidity
19805;DHT22;10062;51.052;13.756;2023-04-01T00:00:04;10.80;1.00
19805;DHT22;10062;51.052;13.756;2023-04-01T00:02:42;10.80;1.00
19805;DHT22;10062;51.052;13.756;2023-04-01T00:05:14;10.80;1.00
19805;DHT22;10062;51.052;13.756;2023-04-01T00:07:47;10.80;1.00
19805;DHT22;10062;51.052;13.756;2023-04-01T00:10:18;10.70;1.00
19805;DHT22;10062;51.052;13.756;2023-04-01T00:12:50;10.70;1.00
19805;DHT22;10062;51.052;13.756;2023-04-01T00:15:23;10.70;1.00
19805;DHT22;10062;51.052;13.756;2023-04-01T00:20:28;10.70;1.00
19805;DHT22;10062;51.052;13.756;2023-04-01T00:22:59;10.70;1.00
19805;DHT22;10062;51.052;13.756;2023-04-01T00:25:31;10.90;1.00
19805;DHT22;10062;51.052;13.756;2023-04-01T00:30:36;10.70;1.00
19805;DHT22;10062;51.052;13.756;2023-04-01T00:33:08;10.70;1.00
19805;DHT22;10062;51.052;13.756;2023-04-01T00:35:40;10.70;1.00
19805;DHT22;10062;51.052;13.756;2023-04-01T00:40:45;10.80;1.00
19805;DHT22;10062;51.052;13.756;2023-04-01T00:43:19;10.80;1.00
19805;DHT22;10062;51.052;13.756;2023-04-01T00:45:53;10.80;1.00
19805;DHT22;10062;51.052;13.756;2023-04-01T00:48:28;10.80;1.00
19805;DHT22;10062;51.052;13.756;2023-04-01T00:51:02;10.70;1.00
19805;DHT22;10062;51.052;13.756;2023-04-01T00:53:39;10.70;1.00
19805;DHT22;10062;51.052;13.756;2023-04-01T00:56:14;10.70;1.00
19805;DHT22;10062;51.052;13.756;2023-04-01T00:58:49;10.70;1.00
19805;DHT22;10062;51.052;13.756;2023-04-01T01:01:24;10.70;1.00
19805;DHT22;10062;51.052;13.756;2023-04-01T01:03:56;10.70;1.00
19805;DHT22;10062;51.052;13.756;2023-04-01T01:06:39;10.60;1.00
19805;DHT22;10062;51.052;13.756;2023-04-01T01:09:25;10.60;1.00
19805;DHT22;10062;51.052;13.756;2023-04-01T01:12:05;10.60;1.00
19805;DHT22;10062;51.052;13.756;2023-04-01T01:14:51;10.60;1.00
19805;DHT22;10062;51.052;13.756;2023-04-01T01:17:33;10.60;1.00
19805;DHT22;10062;51.052;13.756;2023-04-01T01:20:35;10.70;1.00
19805;DHT22;10062;51.052;13.756;2023-04-01T01:26:42;10.70;1.00
19805;DHT22;10062;51.052;13.756;2023-04-01T01:29:39;10.70;1.00
19805;DHT22;10062;51.052;13.756;2023-04-01T01:32:30;10.70;1.00
19805;DHT22;10062;51.052;13.756;2023-04-01T01:35:16;10.70;1.00
19805;DHT22;10062;51.052;13.756;2023-04-01T01:37:53;10.80;1.00
19805;DHT22;10062;51.052;13.756;2023-04-01T01:40:27;10.70;1.00
19805;DHT22;10062;51.052;13.756;2023-04-01T01:43:04;10.70;1.00
19805;DHT22;10062;51.052;13.756;2023-04-01T01:45:40;10.70;1.00
19805;DHT22;10062;51.052;13.756;2023-04-01T01:48:15;10.80;1.00
19805;DHT22;10062;51.052;13.756;2023-04-01T01:50:50;10.80;1.00
19805;DHT22;10062;51.052;13.756;2023-04-01T01:53:22;10.70;1.00
19805;DHT22;10062;51.052;13.756;2023-04-01T01:55:54;10.70;1.00
19805;DHT22;10062;51.052;13.756;2023-04-01T01:58:28;10.70;1.00
19805;DHT22;10062;51.052;13.756;2023-04-01T02:01:04;10.60;1.00
19805;DHT22;10062;51.052;13.756;2023-04-01T02:03:39;10.70;1.00
19805;DHT22;10062;51.052;13.756;2023-04-01T02:06:15;10.70;1.00
19805;DHT22;10062;51.052;13.756;2023-04-01T02:08:51;10.70;1.00
19805;DHT22;10062;51.052;13.756;2023-04-01T02:11:27;10.70;1.00
19805;DHT22;10062;51.052;13.756;2023-04-01T02:14:03;10.70;1.00
19805;DHT22;10062;51.052;13.756;2023-04-01T02:16:43;10.70;1.00
19805;DHT22;10062;51.052;13.756;2023-04-01T02:19:18;10.70;1.00
19805;DHT22;10062;51.052;13.756;2023-04-01T02:21:57;10.70;1.00
19805;DHT22;10062;51.052;13.756;2023-04-01T02:24:31;10.60;1.00
19805;DHT22;10062;51.052;13.756;2023-04-01T02:27:03;10.60;1.00
19805;DHT22;10062;51.052;13.756;2023-04-01T02:29:36;10.70;1.00
19805;DHT22;10062;51.052;13.756;2023-04-01T02:32:13;10.60;1.00
19805;DHT22;10062;51.052;13.756;2023-04-01T02:34:46;10.60;1.00
19805;DHT22;10062;51.052;13.756;2023-04-01T02:37:20;10.60;1.00
19805;DHT22;10062;51.052;13.756;2023-04-01T02:39:52;10.60;1.00
19805;DHT22;10062;51.052;13.756;2023-04-01T02:42:23;10.60;1.00
19805;DHT22;10062;51.052;13.756;2023-04-01T02:44:55;10.60;1.00
19805;DHT22;10062;51.052;13.756;2023-04-01T02:47:27;10.60;1.00
19805;DHT22;10062;51.052;13.756;2023-04-01T02:49:58;10.60;1.00
19805;DHT22;10062;51.052;13.756;2023-04-01T02:52:31;10.60;1.00
19805;DHT22;10062;51.052;13.756;2023-04-01T02:55:06;10.60;1.00
19805;DHT22;10062;51.052;13.756;2023-04-01T02:57:38;10.60;1.00
19805;DHT22;10062;51.052;13.756;2023-04-01T03:00:11;10.60;1.00
19805;DHT22;10062;51.052;13.756;2023-04-01T03:02:43;10.60;1.00
19805;DHT22;10062;51.052;13.756;2023-04-01T03:05:15;10.70;1.00
19805;DHT22;10062;51.052;13.756;2023-04-01T03:07:48;10.50;1.00
19805;DHT22;10062;51.052;13.756;2023-04-01T03:10:21;10.50;1.00
19805;DHT22;10062;51.052;13.756;2023-04-01T03:12:53;10.60;1.00
19805;DHT22;10062;51.052;13.756;2023-04-01T03:15:25;10.60;1.00
19805;DHT22;10062;51.052;13.756;2023-04-01T03:17:56;10.50;99.90
19805;DHT22;10062;51.052;13.756;2023-04-01T03:20:28;10.60;1.00
19805;DHT22;10062;51.052;13.756;2023-04-01T03:23:01;10.60;1.00
19805;DHT22;10062;51.052;13.756;2023-04-01T03:25:33;10.60;1.00
19805;DHT22;10062;51.052;13.756;2023-04-01T03:28:05;10.60;99.90
19805;DHT22;10062;51.052;13.756;2023-04-01T03:30:36;10.50;99.90
19805;DHT22;10062;51.052;13.756;2023-04-01T03:33:08;10.50;1.00
19805;DHT22;10062;51.052;13.756;2023-04-01T03:35:40;10.60;1.00
19805;DHT22;10062;51.052;13.756;2023-04-01T03:38:13;10.60;1.00
19805;DHT22;10062;51.052;13.756;2023-04-01T03:40:46;10.50;99.90
19805;DHT22;10062;51.052;13.756;2023-04-01T03:43:17;10.50;99.90
19805;DHT22;10062;51.052;13.756;2023-04-01T03:45:50;10.50;1.00
19805;DHT22;10062;51.052;13.756;2023-04-01T03:48:22;10.60;99.90
19805;DHT22;10062;51.052;13.756;2023-04-01T03:50:55;10.50;99.90
19805;DHT22;10062;51.052;13.756;2023-04-01T03:53:28;10.50;99.90
19805;DHT22;10062;51.052;13.756;2023-04-01T03:56:04;10.50;99.90
19805;DHT22;10062;51.052;13.756;2023-04-01T03:58:37;10.60;99.90
19805;DHT22;10062;51.052;13.756;2023-04-01T04:01:17;10.60;99.90
19805;DHT22;10062;51.052;13.756;2023-04-01T04:03:49;10.50;99.90
19805;DHT22;10062;51.052;13.756;2023-04-01T04:06:22;10.50;99.90
19805;DHT22;10062;51.052;13.756;2023-04-01T04:08:55;10.50;99.90
19805;DHT22;10062;51.052;13.756;2023-04-01T04:11:27;10.50;99.90
19805;DHT22;10062;51.052;13.756;2023-04-01T04:13:58;10.50;99.90
19805;DHT22;10062;51.052;13.756;2023-04-01T04:16:30;10.40;99.90
19805;DHT22;10062;51.052;13.756;2023-04-01T04:19:05;10.50;99.90
19805;DHT22;10062;51.052;13.756;2023-04-01T04:21:37;10.60;99.90
19805;DHT22;10062;51.052;13.756;2023-04-01T04:24:11;10.50;99.90
19805;DHT22;10062;51.052;13.756;2023-04-01T04:27:02;10.50;1.00
19805;DHT22;10062;51.052;13.756;2023-04-01T04:29:34;10.50;99.90
19805;DHT22;10062;51.052;13.756;2023-04-01T04:32:06;10.50;1.00
19805;DHT22;10062;51.052;13.756;2023-04-01T04:34:38;10.60;1.00
19805;DHT22;10062;51.052;13.756;2023-04-01T04:37:11;10.60;1.00
19805;DHT22;10062;51.052;13.756;2023-04-01T04:39:44;10.60;1.00
19805;DHT22;10062;51.052;13.756;2023-04-01T04:42:16;10.50;1.00
19805;DHT22;10062;51.052;13.756;2023-04-01T04:44:48;10.60;1.00
19805;DHT22;10062;51.052;13.756;2023-04-01T04:47:20;10.60;1.00
19805;DHT22;10062;51.052;13.756;2023-04-01T04:49:52;10.60;1.00
19805;DHT22;10062;51.052;13.756;2023-04-01T04:52:23;10.60;1.00
19805;DHT22;10062;51.052;13.756;2023-04-01T04:54:57;10.50;1.00
19805;DHT22;10062;51.052;13.756;2023-04-01T04:57:28;10.60;1.00
19805;DHT22;10062;51.052;13.756;2023-04-01T05:00:00;10.60;1.00
19805;DHT22;10062;51.052;13.756;2023-04-01T05:03:03;10.60;1.00
19805;DHT22;10062;51.052;13.756;2023-04-01T05:05:35;10.60;1.00
19805;DHT22;10062;51.052;13.756;2023-04-01T05:08:08;10.60;1.00
19805;DHT22;10062;51.052;13.756;2023-04-01T05:10:42;10.60;1.00
19805;DHT22;10062;51.052;13.756;2023-04-01T05:13:14;10.60;1.00
19805;DHT22;10062;51.052;13.756;2023-04-01T05:15:49;10.60;1.00
19805;DHT22;10062;51.052;13.756;2023-04-01T05:18:21;10.60;1.00
19805;DHT22;10062;51.052;13.756;2023-04-01T05:20:54;10.60;1.00
19805;DHT22;10062;51.052;13.756;2023-04-01T05:23:26;10.60;1.00
19805;DHT22;10062;51.052;13.756;2023-04-01T05:26:04;10.70;1.00
19805;DHT22;10062;51.052;13.756;2023-04-01T05:28:36;10.70;1.00
19805;DHT22;10062;51.052;13.756;2023-04-01T05:31:09;10.70;1.00
19805;DHT22;10062;51.052;13.756;2023-04-01T05:33:47;10.70;1.00
19805;DHT22;10062;51.052;13.756;2023-04-01T05:36:19;10.70;1.00
19805;DHT22;10062;51.052;13.756;2023-04-01T05:38:50;10.80;1.00
19805;DHT22;10062;51.052;13.756;2023-04-01T05:41:25;10.80;1.00
19805;DHT22;10062;51.052;13.756;2023-04-01T05:43:56;10.70;1.00
19805;DHT22;10062;51.052;13.756;2023-04-01T05:46:44;10.70;1.00
19805;DHT22;10062;51.052;13.756;2023-04-01T05:49:23;10.80;1.00
19805;DHT22;10062;51.052;13.756;2023-04-01T05:51:55;10.80;1.00
19805;DHT22;10062;51.052;13.756;2023-04-01T05:54:27;10.80;1.00
19805;DHT22;10062;51.052;13.756;2023-04-01T05:57:00;10.70;1.00
19805;DHT22;10062;51.052;13.756;2023-04-01T05:59:32;10.70;1.00
19805;DHT22;10062;51.052;13.756;2023-04-01T06:02:05;10.80;1.00
19805;DHT22;10062;51.052;13.756;2023-04-01T06:04:39;10.80;1.00
19805;DHT22;10062;51.052;13.756;2023-04-01T06:07:12;10.80;1.00
19805;DHT22;10062;51.052;13.756;2023-04-01T06:09:45;10.70;1.00
19805;DHT22;10062;51.052;13.756;2023-04-01T06:12:40;10.80;99.90
19805;DHT22;10062;51.052;13.756;2023-04-01T06:15:29;10.80;1.00
19805;DHT22;10062;51.052;13.756;2023-04-01T06:18:30;10.80;1.00
19805;DHT22;10062;51.052;13.756;2023-04-01T06:21:20;10.80;1.00
19805;DHT22;10062;51.052;13.756;2023-04-01T06:24:15;10.80;1.00
19805;DHT22;10062;51.052;13.756;2023-04-01T06:26:55;10.80;1.00
19805;DHT22;10062;51.052;13.756;2023-04-01T06:29:46;10.90;99.90
19805;DHT22;10062;51.052;13.756;2023-04-01T06:32:52;11.00;1.00
19805;DHT22;10062;51.052;13.756;2023-04-01T06:35:38;11.10;99.90
19805;DHT22;10062;51.052;13.756;2023-04-01T06:41:26;11.20;1.00
19805;DHT22;10062;51.052;13.756;2023-04-01T06:44:12;11.30;1.00
19805;DHT22;10062;51.052;13.756;2023-04-01T06:47:20;11.30;99.90
19805;DHT22;10062;51.052;13.756;2023-04-01T06:50:19;11.40;1.00
19805;DHT22;10062;51.052;13.756;2023-04-01T06:53:17;11.40;1.00
19805;DHT22;10062;51.052;13.756;2023-04-01T06:56:13;11.50;1.00
19805;DHT22;10062;51.052;13.756;2023-04-01T06:59:05;11.50;1.00
19805;DHT22;10062;51.052;13.756;2023-04-01T07:01:42;11.70;1.00
19805;DHT22;10062;51.052;13.756;2023-04-01T07:04:20;11.70;1.00
19805;DHT22;10062;51.052;13.756;2023-04-01T07:06:55;11.70;1.00
19805;DHT22;10062;51.052;13.756;2023-04-01T07:09:32;11.80;99.90
19805;DHT22;10062;51.052;13.756;2023-04-01T07:12:38;11.80;1.00
19805;DHT22;10062;51.052;13.756;2023-04-01T07:15:36;11.80;1.00
19805;DHT22;10062;51.052;13.756;2023-04-01T07:18:15;11.80;1.00
19805;DHT22;10062;51.052;13.756;2023-04-01T07:20:50;11.80;1.00
19805;DHT22;10062;51.052;13.756;2023-04-01T07:23:24;11.90;1.00
19805;DHT22;10062;51.052;13.756;2023-04-01T07:26:14;11.90;1.00
19805;DHT22;10062;51.052;13.756;2023-04-01T07:29:09;11.80;1.00
19805;DHT22;10062;51.052;13.756;2023-04-01T07:32:14;11.90;99.90
19805;DHT22;10062;51.052;13.756;2023-04-01T07:35:00;11.90;1.00
19805;DHT22;10062;51.052;13.756;2023-04-01T07:37:39;12.00;99.90
19805;DHT22;10062;51.052;13.756;2023-04-01T07:40:21;11.90;1.00
19805;DHT22;10062;51.052;13.756;2023-04-01T07:43:09;11.90;99.90
19805;DHT22;10062;51.052;13.756;2023-04-01T07:45:58;11.90;1.00
19805;DHT22;10062;51.052;13.756;2023-04-01T07:48:40;12.00;99.90
19805;DHT22;10062;51.052;13.756;2023-04-01T07:51:18;11.90;99.90
19805;DHT22;10062;51.052;13.756;2023-04-01T07:54:00;12.00;99.90
19805;DHT22;10062;51.052;13.756;2023-04-01T07:56:40;12.10;1.00
19805;DHT22;10062;51.052;13.756;2023-04-01T07:59:21;12.00;34.20
19805;DHT22;10062;51.052;13.756;2023-04-01T08:02:06;12.00;1.00
19805;DHT22;10062;51.052;13.756;2023-04-01T08:04:52;12.00;29.20
19805;DHT22;10062;51.052;13.756;2023-04-01T08:07:31;12.00;1.00
19805;DHT22;10062;51.052;13.756;2023-04-01T08:10:44;11.90;99.90
19805;DHT22;10062;51.052;13.756;2023-04-01T08:13:42;12.10;1.00
19805;DHT22;10062;51.052;13.756;2023-04-01T08:16:46;12.30;1.00
19805;DHT22;10062;51.052;13.756;2023-04-01T08:19:39;12.70;1.00
19805;DHT22;10062;51.052;13.756;2023-04-01T08:22:18;12.90;1.00
19805;DHT22;10062;51.052;13.756;2023-04-01T08:24:55;12.80;1.00
19805;DHT22;10062;51.052;13.756;2023-04-01T08:27:35;12.90;1.00
19805;DHT22;10062;51.052;13.756;2023-04-01T08:30:16;13.00;1.00
19805;DHT22;10062;51.052;13.756;2023-04-01T08:32:53;13.10;1.00
19805;DHT22;10062;51.052;13.756;2023-04-01T08:35:31;13.30;1.00
19805;DHT22;10062;51.052;13.756;2023-04-01T08:38:09;13.30;99.90
19805;DHT22;10062;51.052;13.756;2023-04-01T08:40:57;13.20;99.90
19805;DHT22;10062;51.052;13.756;2023-04-01T08:43:59;13.30;99.90
19805;DHT22;10062;51.052;13.756;2023-04-01T08:47:09;13.30;63.60
19805;DHT22;10062;51.052;13.756;2023-04-01T08:50:05;13.00;99.90
19805;DHT22;10062;51.052;13.756;2023-04-01T08:53:00;13.20;26.20
19805;DHT22;10062;51.052;13.756;2023-04-01T08:55:38;13.10;1.00
19805;DHT22;10062;51.052;13.756;2023-04-01T08:58:47;13.10;30.70
19805;DHT22;10062;51.052;13.756;2023-04-01T09:01:47;13.00;1.00
19805;DHT22;10062;51.052;13.756;2023-04-01T09:07:48;13.30;99.90
19805;DHT22;10062;51.052;13.756;2023-04-01T09:10:57;13.20;1.00
19805;DHT22;10062;51.052;13.756;2023-04-01T09:17:18;13.00;99.90
19805;DHT22;10062;51.052;13.756;2023-04-01T09:20:06;12.90;60.40
19805;DHT22;10062;51.052;13.756;2023-04-01T09:23:02;13.00;93.20
19805;DHT22;10062;51.052;13.756;2023-04-01T09:26:02;12.90;99.80
19805;DHT22;10062;51.052;13.756;2023-04-01T09:28:44;12.90;1.00
19805;DHT22;10062;51.052;13.756;2023-04-01T09:34:52;13.00;99.90
19805;DHT22;10062;51.052;13.756;2023-04-01T09:37:34;12.90;1.00
19805;DHT22;10062;51.052;13.756;2023-04-01T09:40:18;13.00;99.90
19805;DHT22;10062;51.052;13.756;2023-04-01T09:43:21;13.10;99.90
19805;DHT22;10062;51.052;13.756;2023-04-01T09:46:09;13.20;1.00
19805;DHT22;10062;51.052;13.756;2023-04-01T09:49:03;13.30;1.00
19805;DHT22;10062;51.052;13.756;2023-04-01T09:51:51;13.40;1.00
19805;DHT22;10062;51.052;13.756;2023-04-01T09:54:36;13.50;1.00
19805;DHT22;10062;51.052;13.756;2023-04-01T09:57:32;13.30;1.00
19805;DHT22;10062;51.052;13.756;2023-04-01T10:00:39;13.40;1.00
19805;DHT22;10062;51.052;13.756;2023-04-01T10:03:42;13.40;1.00
19805;DHT22;10062;51.052;13.756;2023-04-01T10:06:48;13.60;1.00
19805;DHT22;10062;51.052;13.756;2023-04-01T10:09:45;13.60;99.90
19805;DHT22;10062;51.052;13.756;2023-04-01T10:13:01;13.70;99.90
19805;DHT22;10062;51.052;13.756;2023-04-01T10:25:39;13.50;1.00
19805;DHT22;10062;51.052;13.756;2023-04-01T10:38:20;13.00;1.00
19805;DHT22;10062;51.052;13.756;2023-04-01T10:45:02;13.00;1.00
19805;DHT22;10062;51.052;13.756;2023-04-01T10:48:12;13.20;96.70
19805;DHT22;10062;51.052;13.756;2023-04-01T10:51:16;13.00;1.00
19805;DHT22;10062;51.052;13.756;2023-04-01T10:54:14;13.00;1.00
19805;DHT22;10062;51.052;13.756;2023-04-01T10:57:14;13.00;1.00
19805;DHT22;10062;51.052;13.756;2023-04-01T11:00:30;12.90;1.00
19805;DHT22;10062;51.052;13.756;2023-04-01T11:04:10;13.00;1.00
19805;DHT22;10062;51.052;13.756;2023-04-01T11:07:58;13.10;1.00
19805;DHT22;10062;51.052;13.756;2023-04-01T11:10:57;13.20;1.00
19805;DHT22;10062;51.052;13.756;2023-04-01T11:17:12;13.50;1.00
19805;DHT22;10062;51.052;13.756;2023-04-01T11:22:55;14.10;1.00
19805;DHT22;10062;51.052;13.756;2023-04-01T11:25:47;14.40;1.00
19805;DHT22;10062;51.052;13.756;2023-04-01T11:29:18;14.50;1.00
19805;DHT22;10062;51.052;13.756;2023-04-01T11:31:59;14.30;99.90
19805;DHT22;10062;51.052;13.756;2023-04-01T11:34:55;14.30;1.00
19805;DHT22;10062;51.052;13.756;2023-04-01T11:37:36;14.50;43.00
19805;DHT22;10062;51.052;13.756;2023-04-01T11:40:35;14.80;99.90
19805;DHT22;10062;51.052;13.756;2023-04-01T11:43:39;15.10;1.00
19805;DHT22;10062;51.052;13.756;2023-04-01T11:47:02;15.40;1.00
19805;DHT22;10062;51.052;13.756;2023-04-01T11:49:44;15.50;1.00
19805;DHT22;10062;51.052;13.756;2023-04-01T11:52:50;15.60;1.00
19805;DHT22;10062;51.052;13.756;2023-04-01T11:55:31;16.90;1.00
19805;DHT22;10062;51.052;13.756;2023-04-01T11:58:18;14.90;1.00
19805;DHT22;10062;51.052;13.756;2023-04-01T12:01:13;15.00;1.00
19805;DHT22;10062;51.052;13.756;2023-04-01T12:07:03;15.90;1.00
19805;DHT22;10062;51.052;13.756;2023-04-01T12:09:46;16.20;1.00
19805;DHT22;10062;51.052;13.756;2023-04-01T12:12:29;16.20;1.00
19805;DHT22;10062;51.052;13.756;2023-04-01T12:15:16;16.50;99.90
19805;DHT22;10062;51.052;13.756;2023-04-01T12:17:53;16.30;1.00
19805;DHT22;10062;51.052;13.756;2023-04-01T12:20:36;16.10;1.00
19805;DHT22;10062;51.052;13.756;2023-04-01T12:26:35;16.70;1.00
19805;DHT22;10062;51.052;13.756;2023-04-01T12:29:42;16.90;1.00
19805;DHT22;10062;51.052;13.756;2023-04-01T12:32:21;16.80;1.00
19805;DHT22;10062;51.052;13.756;2023-04-01T12:35:16;16.60;1.00
19805;DHT22;10062;51.052;13.756;2023-04-01T12:37:58;16.20;1.00
19805;DHT22;10062;51.052;13.756;2023-04-01T12:41:03;16.00;99.90
19805;DHT22;10062;51.052;13.756;2023-04-01T12:43:56;15.70;1.00
19805;DHT22;10062;51.052;13.756;2023-04-01T12:46:41;15.20;99.90
19805;DHT22;10062;51.052;13.756;2023-04-01T12:49:27;15.00;1.00
19805;DHT22;10062;51.052;13.756;2023-04-01T12:52:09;15.00;99.90
19805;DHT22;10062;51.052;13.756;2023-04-01T12:55:15;15.00;99.90
19805;DHT22;10062;51.052;13.756;2023-04-01T13:01:06;14.70;1.00
19805;DHT22;10062;51.052;13.756;2023-04-01T13:03:55;14.70;1.00
19805;DHT22;10062;51.052;13.756;2023-04-01T13:06:43;14.90;99.90
19805;DHT22;10062;51.052;13.756;2023-04-01T13:09:31;15.10;99.90
19805;DHT22;10062;51.052;13.756;2023-04-01T13:12:23;14.90;1.00
19805;DHT22;10062;51.052;13.756;2023-04-01T13:15:26;15.00;1.00
19805;DHT22;10062;51.052;13.756;2023-04-01T13:18:12;15.20;1.00
19805;DHT22;10062;51.052;13.756;2023-04-01T13:20:52;15.20;1.00
19805;DHT22;10062;51.052;13.756;2023-04-01T13:23:34;15.30;1.00
19805;DHT22;10062;51.052;13.756;2023-04-01T13:26:15;15.30;1.00
19805;DHT22;10062;51.052;13.756;2023-04-01T13:28:56;15.30;1.00
19805;DHT22;10062;51.052;13.756;2023-04-01T13:31:44;15.30;1.00
19805;DHT22;10062;51.052;13.756;2023-04-01T13:34:25;15.50;99.90
19805;DHT22;10062;51.052;13.756;2023-04-01T13:37:11;15.80;99.90
19805;DHT22;10062;51.052;13.756;2023-04-01T13:40:13;15.80;1.00
19805;DHT22;10062;51.052;13.756;2023-04-01T13:42:51;15.80;99.90
19805;DHT22;10062;51.052;13.756;2023-04-01T13:45:31;15.80;2.80
19805;DHT22;10062;51.052;13.756;2023-04-01T13:48:29;15.90;99.90
19805;DHT22;10062;51.052;13.756;2023-04-01T13:51:40;16.00;99.90
19805;DHT22;10062;51.052;13.756;2023-04-01T13:54:45;16.30;99.90
19805;DHT22;10062;51.052;13.756;2023-04-01T13:57:42;16.90;99.90
19805;DHT22;10062;51.052;13.756;2023-04-01T14:00:35;17.20;1.00
19805;DHT22;10062;51.052;13.756;2023-04-01T14:03:28;17.10;1.00
19805;DHT22;10062;51.052;13.756;2023-04-01T14:06:14;16.90;1.00
19805;DHT22;10062;51.052;13.756;2023-04-01T14:09:11;16.80;1.00
19805;DHT22;10062;51.052;13.756;2023-04-01T14:11:50;16.70;1.00
19805;DHT22;10062;51.052;13.756;2023-04-01T14:14:34;16.70;1.00
19805;DHT22;10062;51.052;13.756;2023-04-01T14:17:16;16.30;1.00
19805;DHT22;10062;51.052;13.756;2023-04-01T14:23:15;16.00;1.00
19805;DHT22;10062;51.052;13.756;2023-04-01T14:28:49;15.80;99.90
19805;DHT22;10062;51.052;13.756;2023-04-01T14:31:34;15.40;99.90
19805;DHT22;10062;51.052;13.756;2023-04-01T14:34:25;15.40;99.90
19805;DHT22;10062;51.052;13.756;2023-04-01T14:37:12;15.20;99.90
19805;DHT22;10062;51.052;13.756;2023-04-01T14:43:15;15.10;99.90
19805;DHT22;10062;51.052;13.756;2023-04-01T14:45:59;15.00;1.00
19805;DHT22;10062;51.052;13.756;2023-04-01T14:48:38;15.00;1.00
19805;DHT22;10062;51.052;13.756;2023-04-01T14:51:16;15.10;1.00
19805;DHT22;10062;51.052;13.756;2023-04-01T14:54:02;15.00;99.90
19805;DHT22;10062;51.052;13.756;2023-04-01T14:56:37;14.90;1.00
19805;DHT22;10062;51.052;13.756;2023-04-01T14:59:14;14.80;1.00
19805;DHT22;10062;51.052;13.756;2023-04-01T15:01:51;14.70;1.00
19805;DHT22;10062;51.052;13.756;2023-04-01T15:07:50;14.90;99.90
19805;DHT22;10062;51.052;13.756;2023-04-01T15:10:49;15.10;99.90
19805;DHT22;10062;51.052;13.756;2023-04-01T15:13:38;15.20;1.00
19805;DHT22;10062;51.052;13.756;2023-04-01T15:16:21;15.30;1.00
19805;DHT22;10062;51.052;13.756;2023-04-01T15:19:03;15.20;1.00
19805;DHT22;10062;51.052;13.756;2023-04-01T15:21:50;15.30;1.00
19805;DHT22;10062;51.052;13.756;2023-04-01T15:24:25;15.40;1.00
19805;DHT22;10062;51.052;13.756;2023-04-01T15:27:10;15.10;1.00
19805;DHT22;10062;51.052;13.756;2023-04-01T15:29:58;15.20;99.90
19805;DHT22;10062;51.052;13.756;2023-04-01T15:32:46;15.20;99.90
19805;DHT22;10062;51.052;13.756;2023-04-01T15:35:34;15.10;1.00
19805;DHT22;10062;51.052;13.756;2023-04-01T15:38:20;15.10;99.90
19805;DHT22;10062;51.052;13.756;2023-04-01T15:41:02;15.20;99.90
19805;DHT22;10062;51.052;13.756;2023-04-01T15:43:40;15.20;99.90
19805;DHT22;10062;51.052;13.756;2023-04-01T15:46:24;15.00;99.90
19805;DHT22;10062;51.052;13.756;2023-04-01T15:49:08;15.00;99.90
19805;DHT22;10062;51.052;13.756;2023-04-01T15:51:53;15.00;99.90
19805;DHT22;10062;51.052;13.756;2023-04-01T15:54:54;15.00;1.00
19805;DHT22;10062;51.052;13.756;2023-04-01T15:57:33;14.80;1.00
19805;DHT22;10062;51.052;13.756;2023-04-01T16:00:29;14.60;1.00
19805;DHT22;10062;51.052;13.756;2023-04-01T16:03:19;14.50;1.00
19805;DHT22;10062;51.052;13.756;2023-04-01T16:06:08;14.40;1.00
19805;DHT22;10062;51.052;13.756;2023-04-01T16:08:57;14.50;1.00
19805;DHT22;10062;51.052;13.756;2023-04-01T16:11:40;14.30;1.00
19805;DHT22;10062;51.052;13.756;2023-04-01T16:14:26;14.20;1.00
19805;DHT22;10062;51.052;13.756;2023-04-01T16:17:21;14.20;1.00
19805;DHT22;10062;51.052;13.756;2023-04-01T16:20:02;14.20;1.00
19805;DHT22;10062;51.052;13.756;2023-04-01T16:22:40;14.10;1.00
19805;DHT22;10062;51.052;13.756;2023-04-01T16:25:20;14.00;1.00
19805;DHT22;10062;51.052;13.756;2023-04-01T16:28:12;14.00;1.00
19805;DHT22;10062;51.052;13.756;2023-04-01T16:30:48;13.90;1.00
19805;DHT22;10062;51.052;13.756;2023-04-01T16:33:23;13.90;1.00
19805;DHT22;10062;51.052;13.756;2023-04-01T16:36:08;13.80;22.50
19805;DHT22;10062;51.052;13.756;2023-04-01T16:38:46;13.70;99.90
19805;DHT22;10062;51.052;13.756;2023-04-01T16:41:24;13.70;1.00
19805;DHT22;10062;51.052;13.756;2023-04-01T16:44:08;13.70;1.00
19805;DHT22;10062;51.052;13.756;2023-04-01T16:46:43;13.70;1.00
19805;DHT22;10062;51.052;13.756;2023-04-01T16:49:24;13.70;99.90
19805;DHT22;10062;51.052;13.756;2023-04-01T16:52:12;13.70;99.90
19805;DHT22;10062;51.052;13.756;2023-04-01T16:54:51;13.60;1.00
19805;DHT22;10062;51.052;13.756;2023-04-01T16:57:29;13.50;1.00
19805;DHT22;10062;51.052;13.756;2023-04-01T17:00:15;13.30;33.70
19805;DHT22;10062;51.052;13.756;2023-04-01T17:02:52;13.40;99.90
19805;DHT22;10062;51.052;13.756;2023-04-01T17:05:49;13.30;1.00
19805;DHT22;10062;51.052;13.756;2023-04-01T17:08:43;13.20;1.00
19805;DHT22;10062;51.052;13.756;2023-04-01T17:11:20;13.20;99.90
19805;DHT22;10062;51.052;13.756;2023-04-01T17:14:03;13.30;99.90
19805;DHT22;10062;51.052;13.756;2023-04-01T17:16:52;13.30;99.90
19805;DHT22;10062;51.052;13.756;2023-04-01T17:19:42;13.30;1.00
19805;DHT22;10062;51.052;13.756;2023-04-01T17:22:25;13.30;1.00
19805;DHT22;10062;51.052;13.756;2023-04-01T17:25:16;13.30;1.00
19805;DHT22;10062;51.052;13.756;2023-04-01T17:27:57;13.30;1.00
19805;DHT22;10062;51.052;13.756;2023-04-01T17:30:33;13.30;1.00
19805;DHT22;10062;51.052;13.756;2023-04-01T17:36:26;13.30;1.00
19805;DHT22;10062;51.052;13.756;2023-04-01T17:39:13;13.30;1.00
19805;DHT22;10062;51.052;13.756;2023-04-01T17:41:53;13.20;1.00
19805;DHT22;10062;51.052;13.756;2023-04-01T17:44:39;13.20;1.00
19805;DHT22;10062;51.052;13.756;2023-04-01T17:50:22;13.10;1.00
19805;DHT22;10062;51.052;13.756;2023-04-01T17:53:14;13.10;1.00
19805;DHT22;10062;51.052;13.756;2023-04-01T17:56:09;13.10;1.00
19805;DHT22;10062;51.052;13.756;2023-04-01T17:58:46;13.00;1.00
19805;DHT22;10062;51.052;13.756;2023-04-01T18:01:26;13.10;1.00
19805;DHT22;10062;51.052;13.756;2023-04-01T18:04:11;13.00;99.90
19805;DHT22;10062;51.052;13.756;2023-04-01T18:07:04;12.90;99.90
19805;DHT22;10062;51.052;13.756;2023-04-01T18:09:52;12.90;99.90
19805;DHT22;10062;51.052;13.756;2023-04-01T18:12:30;12.90;1.00
19805;DHT22;10062;51.052;13.756;2023-04-01T18:15:27;12.90;99.90
19805;DHT22;10062;51.052;13.756;2023-04-01T18:18:11;12.80;1.00
19805;DHT22;10062;51.052;13.756;2023-04-01T18:20:54;12.80;1.00
19805;DHT22;10062;51.052;13.756;2023-04-01T18:23:30;12.80;1.00
19805;DHT22;10062;51.052;13.756;2023-04-01T18:26:10;12.70;99.90
19805;DHT22;10062;51.052;13.756;2023-04-01T18:28:47;12.70;1.00
19805;DHT22;10062;51.052;13.756;2023-04-01T18:31:24;12.70;1.00